This is the latest recevied weather packets stored in our database for station/object ES2ADF-5. If no packets are shown the sender has not sent any weather packets the latest 10 day(s).
| Time | Temp. | Humidity | Pressure | Rain* | Wind** | Luminosity | Snow |
|---|---|---|---|---|---|---|---|
| 1787731016 | 20° C | 72% | 1026.1 hPa | 0 mm | - | - | - |
| 1787730733 | 19.44° C | 72% | 1026 hPa | 0 mm | - | - | - |
| 1787730416 | 19.44° C | 72% | 1026 hPa | 0 mm | - | - | - |
| 1787730116 | 19.44° C | 72% | 1025.9 hPa | 0 mm | - | - | - |
| 1787729815 | 19.44° C | 72% | 1026 hPa | 0 mm | - | - | - |
| 1787729515 | 20° C | 69% | 1025.9 hPa | 0 mm | - | - | - |
| 1787729215 | 20.56° C | 68% | 1025.8 hPa | 0 mm | - | - | - |
| 1787728914 | 21.11° C | 66% | 1025.6 hPa | 0 mm | - | - | - |
| 1787728614 | 21.67° C | 62% | 1025.8 hPa | 0 mm | - | - | - |
| 1787728314 | 23.33° C | 58% | 1025.6 hPa | 0 mm | - | - | - |
| 1787728014 | 25° C | 56% | 1025.6 hPa | 0 mm | - | - | - |
| 1787727713 | 26.11° C | 56% | 1025.6 hPa | 0 mm | - | - | - |
| 1787727413 | 26.11° C | 56% | 1025.5 hPa | 0 mm | - | - | - |
| 1787727113 | 26.67° C | 55% | 1025.3 hPa | 0 mm | - | - | - |
| 1787726812 | 26.67° C | 55% | 1025.1 hPa | 0 mm | - | - | - |
| 1787726512 | 26.67° C | 56% | 1025.1 hPa | 0 mm | - | - | - |
| 1787726212 | 26.67° C | 58% | 1024.9 hPa | 0 mm | - | - | - |
| 1787725912 | 26.11° C | 58% | 1024.8 hPa | 0 mm | - | - | - |
| 1787725611 | 25.56° C | 59% | 1024.5 hPa | 0 mm | - | - | - |
| 1787725311 | 25.56° C | 61% | 1024.5 hPa | 0 mm | - | - | - |
| 1787725011 | 25° C | 62% | 1024.4 hPa | 0 mm | - | - | - |
| 1787724710 | 23.33° C | 66% | 1024.4 hPa | 0 mm | - | - | - |
| 1787724410 | 22.78° C | 70% | 1024.4 hPa | 0 mm | - | - | - |
| 1787724110 | 21.11° C | 74% | 1024.5 hPa | 0 mm | - | - | - |
| 1787723809 | 18.33° C | 81% | 1024.7 hPa | 0 mm | - | - | - |
* Rain latest hour (hover to see other rain measurements)
** Current wind speed in m/s (hover to see current wind gust speed)